sensor_id;sensor_type;location;lat;lon;timestamp;P1;durP1;ratioP1;P2;durP2;ratioP2
7108;SDS011;29079;41.930;25.558;2023-12-04T00:01:03;20.83;;;13.85;;
7108;SDS011;29079;41.930;25.558;2023-12-04T00:03:52;22.58;;;14.35;;
7108;SDS011;29079;41.930;25.558;2023-12-04T00:06:42;22.52;;;13.57;;
7108;SDS011;29079;41.930;25.558;2023-12-04T00:09:30;20.67;;;11.75;;
7108;SDS011;29079;41.930;25.558;2023-12-04T00:12:18;29.83;;;12.63;;
7108;SDS011;29079;41.930;25.558;2023-12-04T00:15:07;23.23;;;12.73;;
7108;SDS011;29079;41.930;25.558;2023-12-04T00:17:56;22.80;;;12.45;;
7108;SDS011;29079;41.930;25.558;2023-12-04T00:20:44;22.55;;;12.57;;
7108;SDS011;29079;41.930;25.558;2023-12-04T00:23:33;24.33;;;14.25;;
7108;SDS011;29079;41.930;25.558;2023-12-04T00:26:21;18.52;;;12.23;;
7108;SDS011;29079;41.930;25.558;2023-12-04T00:29:10;25.17;;;14.00;;
7108;SDS011;29079;41.930;25.558;2023-12-04T00:31:58;24.52;;;13.30;;
7108;SDS011;29079;41.930;25.558;2023-12-04T00:34:46;22.65;;;13.55;;
7108;SDS011;29079;41.930;25.558;2023-12-04T00:37:34;25.90;;;15.50;;
7108;SDS011;29079;41.930;25.558;2023-12-04T00:40:26;26.55;;;14.15;;
7108;SDS011;29079;41.930;25.558;2023-12-04T00:43:14;30.02;;;14.25;;
7108;SDS011;29079;41.930;25.558;2023-12-04T00:46:03;25.10;;;14.40;;
7108;SDS011;29079;41.930;25.558;2023-12-04T00:48:51;25.42;;;14.43;;
7108;SDS011;29079;41.930;25.558;2023-12-04T00:51:39;24.00;;;14.40;;
7108;SDS011;29079;41.930;25.558;2023-12-04T00:54:27;24.67;;;15.73;;
7108;SDS011;29079;41.930;25.558;2023-12-04T00:57:16;29.52;;;17.27;;
7108;SDS011;29079;41.930;25.558;2023-12-04T01:00:06;26.52;;;14.45;;
7108;SDS011;29079;41.930;25.558;2023-12-04T01:02:55;27.50;;;14.90;;
7108;SDS011;29079;41.930;25.558;2023-12-04T01:05:43;23.33;;;13.90;;
7108;SDS011;29079;41.930;25.558;2023-12-04T01:08:31;19.52;;;13.55;;
7108;SDS011;29079;41.930;25.558;2023-12-04T01:11:19;22.77;;;12.38;;
7108;SDS011;29079;41.930;25.558;2023-12-04T01:14:08;20.20;;;12.90;;
7108;SDS011;29079;41.930;25.558;2023-12-04T01:16:56;26.35;;;14.00;;
7108;SDS011;29079;41.930;25.558;2023-12-04T01:19:44;19.58;;;12.75;;
7108;SDS011;29079;41.930;25.558;2023-12-04T01:22:32;27.00;;;14.50;;
7108;SDS011;29079;41.930;25.558;2023-12-04T01:25:21;25.27;;;13.52;;
7108;SDS011;29079;41.930;25.558;2023-12-04T01:28:09;28.20;;;15.07;;
7108;SDS011;29079;41.930;25.558;2023-12-04T01:31:01;24.80;;;15.07;;
7108;SDS011;29079;41.930;25.558;2023-12-04T01:33:49;24.58;;;14.38;;
7108;SDS011;29079;41.930;25.558;2023-12-04T01:36:39;21.85;;;14.15;;
7108;SDS011;29079;41.930;25.558;2023-12-04T01:39:28;22.17;;;13.10;;
7108;SDS011;29079;41.930;25.558;2023-12-04T01:42:16;20.08;;;11.70;;
7108;SDS011;29079;41.930;25.558;2023-12-04T01:45:05;23.90;;;13.18;;
7108;SDS011;29079;41.930;25.558;2023-12-04T01:47:55;21.38;;;12.43;;
7108;SDS011;29079;41.930;25.558;2023-12-04T01:50:43;23.90;;;13.13;;
7108;SDS011;29079;41.930;25.558;2023-12-04T01:53:32;20.90;;;11.55;;
7108;SDS011;29079;41.930;25.558;2023-12-04T01:56:21;22.50;;;12.18;;
7108;SDS011;29079;41.930;25.558;2023-12-04T01:59:09;18.98;;;11.40;;
7108;SDS011;29079;41.930;25.558;2023-12-04T02:01:57;21.80;;;12.30;;
7108;SDS011;29079;41.930;25.558;2023-12-04T02:04:47;16.75;;;11.00;;
7108;SDS011;29079;41.930;25.558;2023-12-04T02:07:35;22.75;;;11.75;;
7108;SDS011;29079;41.930;25.558;2023-12-04T02:10:24;20.55;;;12.45;;
7108;SDS011;29079;41.930;25.558;2023-12-04T02:13:12;20.13;;;11.70;;
7108;SDS011;29079;41.930;25.558;2023-12-04T02:16:02;21.92;;;12.02;;
7108;SDS011;29079;41.930;25.558;2023-12-04T02:18:53;18.05;;;11.13;;
7108;SDS011;29079;41.930;25.558;2023-12-04T02:21:43;17.05;;;10.60;;
7108;SDS011;29079;41.930;25.558;2023-12-04T02:24:32;19.90;;;11.45;;
7108;SDS011;29079;41.930;25.558;2023-12-04T02:27:22;19.38;;;11.82;;
7108;SDS011;29079;41.930;25.558;2023-12-04T02:30:14;21.20;;;11.43;;
7108;SDS011;29079;41.930;25.558;2023-12-04T02:33:05;16.65;;;11.35;;
7108;SDS011;29079;41.930;25.558;2023-12-04T02:35:54;19.02;;;12.13;;
7108;SDS011;29079;41.930;25.558;2023-12-04T02:38:44;16.85;;;11.65;;
7108;SDS011;29079;41.930;25.558;2023-12-04T02:41:34;21.70;;;12.65;;
7108;SDS011;29079;41.930;25.558;2023-12-04T02:44:22;16.92;;;10.60;;
7108;SDS011;29079;41.930;25.558;2023-12-04T02:47:10;19.58;;;12.82;;
7108;SDS011;29079;41.930;25.558;2023-12-04T02:49:59;16.40;;;10.43;;
7108;SDS011;29079;41.930;25.558;2023-12-04T02:52:47;17.33;;;10.55;;
7108;SDS011;29079;41.930;25.558;2023-12-04T02:55:35;18.80;;;10.30;;
7108;SDS011;29079;41.930;25.558;2023-12-04T02:58:24;17.67;;;10.90;;
7108;SDS011;29079;41.930;25.558;2023-12-04T03:01:13;18.33;;;10.77;;
7108;SDS011;29079;41.930;25.558;2023-12-04T03:04:01;18.55;;;10.60;;
7108;SDS011;29079;41.930;25.558;2023-12-04T03:06:49;17.30;;;11.27;;
7108;SDS011;29079;41.930;25.558;2023-12-04T03:09:37;16.80;;;10.65;;
7108;SDS011;29079;41.930;25.558;2023-12-04T03:12:34;19.05;;;11.05;;
7108;SDS011;29079;41.930;25.558;2023-12-04T03:15:24;18.98;;;10.35;;
7108;SDS011;29079;41.930;25.558;2023-12-04T03:18:16;19.70;;;11.05;;
7108;SDS011;29079;41.930;25.558;2023-12-04T03:21:04;18.80;;;12.38;;
7108;SDS011;29079;41.930;25.558;2023-12-04T03:23:52;21.48;;;12.75;;
7108;SDS011;29079;41.930;25.558;2023-12-04T03:26:40;19.40;;;10.85;;
7108;SDS011;29079;41.930;25.558;2023-12-04T03:29:28;18.85;;;11.93;;
7108;SDS011;29079;41.930;25.558;2023-12-04T03:32:17;19.02;;;11.52;;
7108;SDS011;29079;41.930;25.558;2023-12-04T03:35:05;16.48;;;11.88;;
7108;SDS011;29079;41.930;25.558;2023-12-04T03:37:54;17.60;;;10.98;;
7108;SDS011;29079;41.930;25.558;2023-12-04T03:40:42;15.95;;;9.52;;
7108;SDS011;29079;41.930;25.558;2023-12-04T03:43:30;17.10;;;10.27;;
7108;SDS011;29079;41.930;25.558;2023-12-04T03:46:18;16.67;;;10.57;;
7108;SDS011;29079;41.930;25.558;2023-12-04T03:49:09;19.95;;;10.52;;
7108;SDS011;29079;41.930;25.558;2023-12-04T03:51:57;13.85;;;8.45;;
7108;SDS011;29079;41.930;25.558;2023-12-04T03:54:45;20.30;;;10.77;;
7108;SDS011;29079;41.930;25.558;2023-12-04T03:57:33;18.88;;;9.55;;
7108;SDS011;29079;41.930;25.558;2023-12-04T04:00:21;16.13;;;10.32;;
7108;SDS011;29079;41.930;25.558;2023-12-04T04:03:10;17.38;;;9.40;;
7108;SDS011;29079;41.930;25.558;2023-12-04T04:05:59;16.00;;;9.55;;
7108;SDS011;29079;41.930;25.558;2023-12-04T04:08:47;20.08;;;10.20;;
7108;SDS011;29079;41.930;25.558;2023-12-04T04:11:35;15.52;;;9.25;;
7108;SDS011;29079;41.930;25.558;2023-12-04T04:14:24;18.77;;;9.75;;
7108;SDS011;29079;41.930;25.558;2023-12-04T04:17:12;15.90;;;9.70;;
7108;SDS011;29079;41.930;25.558;2023-12-04T04:20:00;17.83;;;9.93;;
7108;SDS011;29079;41.930;25.558;2023-12-04T04:22:50;19.92;;;9.52;;
7108;SDS011;29079;41.930;25.558;2023-12-04T04:25:39;14.32;;;9.73;;
7108;SDS011;29079;41.930;25.558;2023-12-04T04:28:27;18.73;;;9.45;;
7108;SDS011;29079;41.930;25.558;2023-12-04T04:31:16;17.30;;;10.23;;
7108;SDS011;29079;41.930;25.558;2023-12-04T04:34:04;20.90;;;10.70;;
7108;SDS011;29079;41.930;25.558;2023-12-04T04:36:52;15.70;;;9.98;;
7108;SDS011;29079;41.930;25.558;2023-12-04T04:39:41;15.45;;;9.45;;
7108;SDS011;29079;41.930;25.558;2023-12-04T04:42:30;20.33;;;10.25;;
7108;SDS011;29079;41.930;25.558;2023-12-04T04:45:18;18.38;;;10.20;;
7108;SDS011;29079;41.930;25.558;2023-12-04T04:48:06;18.88;;;9.30;;
7108;SDS011;29079;41.930;25.558;2023-12-04T04:50:54;15.20;;;9.32;;
7108;SDS011;29079;41.930;25.558;2023-12-04T04:53:42;16.45;;;10.25;;
7108;SDS011;29079;41.930;25.558;2023-12-04T04:56:31;16.45;;;9.77;;
7108;SDS011;29079;41.930;25.558;2023-12-04T04:59:19;17.67;;;9.43;;
7108;SDS011;29079;41.930;25.558;2023-12-04T05:02:07;14.40;;;9.52;;
7108;SDS011;29079;41.930;25.558;2023-12-04T05:04:55;16.35;;;10.40;;
7108;SDS011;29079;41.930;25.558;2023-12-04T05:07:47;18.08;;;9.10;;
7108;SDS011;29079;41.930;25.558;2023-12-04T05:10:37;16.17;;;10.00;;
7108;SDS011;29079;41.930;25.558;2023-12-04T05:13:27;18.67;;;9.73;;
7108;SDS011;29079;41.930;25.558;2023-12-04T05:16:15;16.95;;;9.65;;
7108;SDS011;29079;41.930;25.558;2023-12-04T05:19:03;12.95;;;9.05;;
7108;SDS011;29079;41.930;25.558;2023-12-04T05:21:52;16.65;;;9.30;;
7108;SDS011;29079;41.930;25.558;2023-12-04T05:24:40;17.77;;;10.18;;
7108;SDS011;29079;41.930;25.558;2023-12-04T05:27:28;15.23;;;9.02;;
7108;SDS011;29079;41.930;25.558;2023-12-04T05:30:18;16.65;;;9.50;;
7108;SDS011;29079;41.930;25.558;2023-12-04T05:33:06;17.42;;;9.82;;
7108;SDS011;29079;41.930;25.558;2023-12-04T05:35:54;22.55;;;11.10;;
7108;SDS011;29079;41.930;25.558;2023-12-04T05:38:42;22.58;;;12.48;;
7108;SDS011;29079;41.930;25.558;2023-12-04T05:41:30;19.92;;;11.88;;
7108;SDS011;29079;41.930;25.558;2023-12-04T05:44:18;21.30;;;13.25;;
7108;SDS011;29079;41.930;25.558;2023-12-04T05:47:08;20.70;;;12.82;;
7108;SDS011;29079;41.930;25.558;2023-12-04T05:49:55;23.10;;;11.73;;
7108;SDS011;29079;41.930;25.558;2023-12-04T05:52:43;16.20;;;11.23;;
7108;SDS011;29079;41.930;25.558;2023-12-04T05:55:32;21.95;;;12.55;;
7108;SDS011;29079;41.930;25.558;2023-12-04T05:58:20;17.08;;;11.20;;
7108;SDS011;29079;41.930;25.558;2023-12-04T06:01:08;26.02;;;12.05;;
7108;SDS011;29079;41.930;25.558;2023-12-04T06:03:57;19.60;;;11.55;;
7108;SDS011;29079;41.930;25.558;2023-12-04T06:06:46;24.42;;;12.40;;
7108;SDS011;29079;41.930;25.558;2023-12-04T06:09:34;22.90;;;13.05;;
7108;SDS011;29079;41.930;25.558;2023-12-04T06:12:23;18.42;;;11.00;;
7108;SDS011;29079;41.930;25.558;2023-12-04T06:15:11;19.00;;;11.80;;
7108;SDS011;29079;41.930;25.558;2023-12-04T06:17:59;20.23;;;11.57;;
7108;SDS011;29079;41.930;25.558;2023-12-04T06:20:48;22.20;;;12.30;;
7108;SDS011;29079;41.930;25.558;2023-12-04T06:23:37;20.80;;;12.43;;
7108;SDS011;29079;41.930;25.558;2023-12-04T06:26:25;20.77;;;12.50;;
7108;SDS011;29079;41.930;25.558;2023-12-04T06:29:14;24.48;;;12.73;;
7108;SDS011;29079;41.930;25.558;2023-12-04T06:32:02;21.38;;;12.05;;
7108;SDS011;29079;41.930;25.558;2023-12-04T06:34:52;24.42;;;13.88;;
7108;SDS011;29079;41.930;25.558;2023-12-04T06:37:43;23.05;;;13.07;;
7108;SDS011;29079;41.930;25.558;2023-12-04T06:40:33;24.58;;;13.18;;
7108;SDS011;29079;41.930;25.558;2023-12-04T06:43:22;24.20;;;13.35;;
7108;SDS011;29079;41.930;25.558;2023-12-04T06:46:10;27.55;;;13.90;;
7108;SDS011;29079;41.930;25.558;2023-12-04T06:49:01;23.63;;;13.50;;
7108;SDS011;29079;41.930;25.558;2023-12-04T06:51:52;26.25;;;14.60;;
7108;SDS011;29079;41.930;25.558;2023-12-04T06:54:41;25.75;;;14.20;;
7108;SDS011;29079;41.930;25.558;2023-12-04T06:57:29;26.33;;;13.85;;
7108;SDS011;29079;41.930;25.558;2023-12-04T07:00:17;22.27;;;13.55;;
7108;SDS011;29079;41.930;25.558;2023-12-04T07:03:08;22.30;;;12.05;;
7108;SDS011;29079;41.930;25.558;2023-12-04T07:05:56;19.02;;;11.00;;
7108;SDS011;29079;41.930;25.558;2023-12-04T07:08:44;22.65;;;12.40;;
7108;SDS011;29079;41.930;25.558;2023-12-04T07:11:34;20.52;;;12.20;;
7108;SDS011;29079;41.930;25.558;2023-12-04T07:14:22;21.52;;;12.32;;
7108;SDS011;29079;41.930;25.558;2023-12-04T07:17:10;24.23;;;15.60;;
7108;SDS011;29079;41.930;25.558;2023-12-04T07:19:58;51.22;;;17.42;;
7108;SDS011;29079;41.930;25.558;2023-12-04T07:22:45;23.48;;;12.80;;
7108;SDS011;29079;41.930;25.558;2023-12-04T07:25:33;28.08;;;13.18;;
7108;SDS011;29079;41.930;25.558;2023-12-04T07:28:23;25.90;;;11.90;;
7108;SDS011;29079;41.930;25.558;2023-12-04T07:31:11;31.73;;;13.13;;
7108;SDS011;29079;41.930;25.558;2023-12-04T07:33:59;22.73;;;13.18;;
7108;SDS011;29079;41.930;25.558;2023-12-04T07:36:48;23.90;;;12.60;;
7108;SDS011;29079;41.930;25.558;2023-12-04T07:39:37;22.15;;;12.88;;
7108;SDS011;29079;41.930;25.558;2023-12-04T07:42:25;22.17;;;13.32;;
7108;SDS011;29079;41.930;25.558;2023-12-04T07:45:14;25.60;;;14.48;;
7108;SDS011;29079;41.930;25.558;2023-12-04T07:48:03;22.02;;;13.52;;
7108;SDS011;29079;41.930;25.558;2023-12-04T07:50:51;29.48;;;14.38;;
7108;SDS011;29079;41.930;25.558;2023-12-04T07:53:39;23.10;;;14.77;;
7108;SDS011;29079;41.930;25.558;2023-12-04T07:56:28;20.35;;;12.45;;
7108;SDS011;29079;41.930;25.558;2023-12-04T07:59:16;22.38;;;12.18;;
7108;SDS011;29079;41.930;25.558;2023-12-04T08:02:05;22.00;;;11.88;;
7108;SDS011;29079;41.930;25.558;2023-12-04T08:04:54;22.88;;;14.07;;
7108;SDS011;29079;41.930;25.558;2023-12-04T08:07:42;26.40;;;13.13;;
7108;SDS011;29079;41.930;25.558;2023-12-04T08:10:31;22.45;;;14.02;;
7108;SDS011;29079;41.930;25.558;2023-12-04T08:13:19;23.77;;;12.50;;
7108;SDS011;29079;41.930;25.558;2023-12-04T08:16:12;23.25;;;13.20;;
7108;SDS011;29079;41.930;25.558;2023-12-04T08:19:03;24.50;;;13.73;;
7108;SDS011;29079;41.930;25.558;2023-12-04T08:21:51;28.13;;;14.32;;
7108;SDS011;29079;41.930;25.558;2023-12-04T08:24:39;20.20;;;12.60;;
7108;SDS011;29079;41.930;25.558;2023-12-04T08:27:28;24.95;;;13.85;;
7108;SDS011;29079;41.930;25.558;2023-12-04T08:30:16;23.23;;;13.25;;
7108;SDS011;29079;41.930;25.558;2023-12-04T08:33:04;20.42;;;12.23;;
7108;SDS011;29079;41.930;25.558;2023-12-04T08:35:54;24.17;;;12.98;;
7108;SDS011;29079;41.930;25.558;2023-12-04T08:38:42;20.80;;;12.82;;
7108;SDS011;29079;41.930;25.558;2023-12-04T08:41:30;19.33;;;11.57;;
7108;SDS011;29079;41.930;25.558;2023-12-04T08:44:18;23.77;;;12.48;;
7108;SDS011;29079;41.930;25.558;2023-12-04T08:47:07;20.58;;;12.38;;
7108;SDS011;29079;41.930;25.558;2023-12-04T08:49:55;18.95;;;11.85;;
7108;SDS011;29079;41.930;25.558;2023-12-04T08:52:45;23.05;;;13.50;;
7108;SDS011;29079;41.930;25.558;2023-12-04T08:55:33;21.70;;;12.70;;
7108;SDS011;29079;41.930;25.558;2023-12-04T08:58:21;22.33;;;12.95;;
7108;SDS011;29079;41.930;25.558;2023-12-04T09:01:09;24.38;;;11.13;;
7108;SDS011;29079;41.930;25.558;2023-12-04T09:03:57;21.85;;;12.80;;
7108;SDS011;29079;41.930;25.558;2023-12-04T09:06:46;21.88;;;13.50;;
7108;SDS011;29079;41.930;25.558;2023-12-04T09:09:38;22.15;;;13.38;;
7108;SDS011;29079;41.930;25.558;2023-12-04T09:12:26;19.60;;;12.52;;
7108;SDS011;29079;41.930;25.558;2023-12-04T09:15:15;21.35;;;12.32;;
7108;SDS011;29079;41.930;25.558;2023-12-04T09:18:03;21.08;;;12.20;;
7108;SDS011;29079;41.930;25.558;2023-12-04T09:20:51;24.35;;;12.45;;
7108;SDS011;29079;41.930;25.558;2023-12-04T09:23:39;21.52;;;11.65;;
7108;SDS011;29079;41.930;25.558;2023-12-04T09:26:29;19.42;;;12.75;;
7108;SDS011;29079;41.930;25.558;2023-12-04T09:29:17;23.38;;;13.63;;
7108;SDS011;29079;41.930;25.558;2023-12-04T09:32:10;30.85;;;16.90;;
7108;SDS011;29079;41.930;25.558;2023-12-04T09:34:59;25.70;;;13.55;;
7108;SDS011;29079;41.930;25.558;2023-12-04T09:37:46;22.75;;;14.27;;
7108;SDS011;29079;41.930;25.558;2023-12-04T09:40:37;26.85;;;14.38;;
7108;SDS011;29079;41.930;25.558;2023-12-04T09:43:27;30.27;;;15.13;;
7108;SDS011;29079;41.930;25.558;2023-12-04T09:46:16;31.63;;;17.50;;
7108;SDS011;29079;41.930;25.558;2023-12-04T09:49:05;24.58;;;14.65;;
7108;SDS011;29079;41.930;25.558;2023-12-04T09:51:54;28.65;;;16.58;;
7108;SDS011;29079;41.930;25.558;2023-12-04T09:54:45;27.25;;;14.90;;
7108;SDS011;29079;41.930;25.558;2023-12-04T09:57:33;26.63;;;14.85;;
7108;SDS011;29079;41.930;25.558;2023-12-04T10:00:24;21.67;;;13.00;;
7108;SDS011;29079;41.930;25.558;2023-12-04T10:03:12;22.77;;;13.23;;
7108;SDS011;29079;41.930;25.558;2023-12-04T10:06:00;22.27;;;13.15;;
7108;SDS011;29079;41.930;25.558;2023-12-04T10:08:50;29.42;;;13.57;;
7108;SDS011;29079;41.930;25.558;2023-12-04T10:11:39;24.50;;;14.05;;
7108;SDS011;29079;41.930;25.558;2023-12-04T10:14:28;28.75;;;14.23;;
7108;SDS011;29079;41.930;25.558;2023-12-04T10:17:19;36.05;;;17.60;;
7108;SDS011;29079;41.930;25.558;2023-12-04T10:20:08;25.02;;;14.18;;
7108;SDS011;29079;41.930;25.558;2023-12-04T10:23:04;31.48;;;16.13;;
7108;SDS011;29079;41.930;25.558;2023-12-04T10:25:52;22.40;;;13.38;;
7108;SDS011;29079;41.930;25.558;2023-12-04T10:28:42;29.73;;;16.73;;
7108;SDS011;29079;41.930;25.558;2023-12-04T10:31:46;32.50;;;16.52;;
7108;SDS011;29079;41.930;25.558;2023-12-04T10:34:38;28.13;;;16.02;;
7108;SDS011;29079;41.930;25.558;2023-12-04T10:37:29;30.75;;;15.50;;
7108;SDS011;29079;41.930;25.558;2023-12-04T10:40:22;26.35;;;16.10;;
7108;SDS011;29079;41.930;25.558;2023-12-04T10:43:12;32.35;;;14.27;;
7108;SDS011;29079;41.930;25.558;2023-12-04T10:46:03;35.10;;;17.90;;
7108;SDS011;29079;41.930;25.558;2023-12-04T10:48:51;31.95;;;16.20;;
7108;SDS011;29079;41.930;25.558;2023-12-04T10:51:41;30.05;;;17.70;;
7108;SDS011;29079;41.930;25.558;2023-12-04T10:54:31;29.73;;;15.85;;
7108;SDS011;29079;41.930;25.558;2023-12-04T10:57:21;32.42;;;16.52;;
7108;SDS011;29079;41.930;25.558;2023-12-04T11:00:14;30.00;;;16.55;;
7108;SDS011;29079;41.930;25.558;2023-12-04T11:03:05;29.02;;;14.32;;
7108;SDS011;29079;41.930;25.558;2023-12-04T11:05:56;33.25;;;18.42;;
7108;SDS011;29079;41.930;25.558;2023-12-04T11:08:49;30.13;;;16.42;;
7108;SDS011;29079;41.930;25.558;2023-12-04T11:11:40;28.02;;;14.40;;
7108;SDS011;29079;41.930;25.558;2023-12-04T11:14:48;33.53;;;17.63;;
7108;SDS011;29079;41.930;25.558;2023-12-04T11:17:41;35.67;;;17.42;;
7108;SDS011;29079;41.930;25.558;2023-12-04T11:20:39;30.27;;;16.42;;
7108;SDS011;29079;41.930;25.558;2023-12-04T11:23:32;30.27;;;15.65;;
7108;SDS011;29079;41.930;25.558;2023-12-04T11:26:22;31.20;;;14.15;;
7108;SDS011;29079;41.930;25.558;2023-12-04T11:29:11;34.97;;;17.58;;
7108;SDS011;29079;41.930;25.558;2023-12-04T11:32:00;38.05;;;17.00;;
7108;SDS011;29079;41.930;25.558;2023-12-04T11:34:49;28.70;;;15.10;;
7108;SDS011;29079;41.930;25.558;2023-12-04T11:37:38;28.27;;;15.98;;
7108;SDS011;29079;41.930;25.558;2023-12-04T11:40:26;33.30;;;16.25;;
7108;SDS011;29079;41.930;25.558;2023-12-04T11:43:23;34.75;;;16.02;;
7108;SDS011;29079;41.930;25.558;2023-12-04T11:46:12;33.58;;;16.40;;
7108;SDS011;29079;41.930;25.558;2023-12-04T11:52:17;27.23;;;13.80;;
7108;SDS011;29079;41.930;25.558;2023-12-04T11:55:20;29.95;;;14.82;;
7108;SDS011;29079;41.930;25.558;2023-12-04T11:58:09;41.42;;;18.40;;
7108;SDS011;29079;41.930;25.558;2023-12-04T12:00:59;40.53;;;17.60;;
7108;SDS011;29079;41.930;25.558;2023-12-04T12:03:50;50.28;;;23.35;;
7108;SDS011;29079;41.930;25.558;2023-12-04T12:06:38;53.38;;;24.45;;
7108;SDS011;29079;41.930;25.558;2023-12-04T12:09:26;78.63;;;29.88;;
7108;SDS011;29079;41.930;25.558;2023-12-04T12:12:15;94.13;;;31.92;;
7108;SDS011;29079;41.930;25.558;2023-12-04T12:15:03;74.57;;;30.30;;
7108;SDS011;29079;41.930;25.558;2023-12-04T12:17:54;102.68;;;35.15;;
7108;SDS011;29079;41.930;25.558;2023-12-04T12:20:42;78.63;;;31.70;;
7108;SDS011;29079;41.930;25.558;2023-12-04T12:23:30;82.07;;;29.35;;
7108;SDS011;29079;41.930;25.558;2023-12-04T12:26:20;68.00;;;27.27;;
7108;SDS011;29079;41.930;25.558;2023-12-04T12:29:08;63.50;;;26.10;;
7108;SDS011;29079;41.930;25.558;2023-12-04T12:31:56;66.82;;;28.85;;
7108;SDS011;29079;41.930;25.558;2023-12-04T12:34:46;77.78;;;31.05;;
7108;SDS011;29079;41.930;25.558;2023-12-04T12:37:34;75.82;;;29.92;;
7108;SDS011;29079;41.930;25.558;2023-12-04T12:40:22;67.40;;;26.20;;
7108;SDS011;29079;41.930;25.558;2023-12-04T12:43:10;54.47;;;24.95;;
7108;SDS011;29079;41.930;25.558;2023-12-04T12:45:59;51.47;;;23.02;;
7108;SDS011;29079;41.930;25.558;2023-12-04T12:48:49;63.20;;;27.75;;
7108;SDS011;29079;41.930;25.558;2023-12-04T12:51:39;50.95;;;22.67;;
7108;SDS011;29079;41.930;25.558;2023-12-04T12:54:28;41.58;;;20.67;;
7108;SDS011;29079;41.930;25.558;2023-12-04T12:57:19;41.28;;;20.83;;
7108;SDS011;29079;41.930;25.558;2023-12-04T13:00:08;42.92;;;21.42;;
7108;SDS011;29079;41.930;25.558;2023-12-04T13:02:58;45.25;;;19.58;;
7108;SDS011;29079;41.930;25.558;2023-12-04T13:05:46;45.55;;;18.90;;
7108;SDS011;29079;41.930;25.558;2023-12-04T13:08:36;37.78;;;19.63;;
7108;SDS011;29079;41.930;25.558;2023-12-04T13:11:24;38.05;;;19.13;;
7108;SDS011;29079;41.930;25.558;2023-12-04T13:14:12;38.45;;;19.20;;
7108;SDS011;29079;41.930;25.558;2023-12-04T13:17:01;37.35;;;18.35;;
7108;SDS011;29079;41.930;25.558;2023-12-04T13:19:50;42.65;;;19.27;;
7108;SDS011;29079;41.930;25.558;2023-12-04T13:22:38;36.13;;;16.75;;
7108;SDS011;29079;41.930;25.558;2023-12-04T13:25:28;39.65;;;17.13;;
7108;SDS011;29079;41.930;25.558;2023-12-04T13:28:16;39.63;;;17.20;;
7108;SDS011;29079;41.930;25.558;2023-12-04T13:31:17;42.92;;;17.48;;
7108;SDS011;29079;41.930;25.558;2023-12-04T13:34:06;30.08;;;13.45;;
7108;SDS011;29079;41.930;25.558;2023-12-04T13:36:54;28.45;;;14.32;;
7108;SDS011;29079;41.930;25.558;2023-12-04T13:39:42;38.45;;;16.73;;
7108;SDS011;29079;41.930;25.558;2023-12-04T13:42:36;40.28;;;17.27;;
7108;SDS011;29079;41.930;25.558;2023-12-04T13:45:43;42.15;;;18.48;;
7108;SDS011;29079;41.930;25.558;2023-12-04T13:48:31;39.40;;;17.35;;
7108;SDS011;29079;41.930;25.558;2023-12-04T13:51:19;41.17;;;18.92;;
7108;SDS011;29079;41.930;25.558;2023-12-04T13:54:09;52.05;;;19.63;;
7108;SDS011;29079;41.930;25.558;2023-12-04T13:57:06;36.67;;;18.25;;
7108;SDS011;29079;41.930;25.558;2023-12-04T13:59:56;38.42;;;18.77;;
7108;SDS011;29079;41.930;25.558;2023-12-04T14:02:44;37.00;;;19.13;;
7108;SDS011;29079;41.930;25.558;2023-12-04T14:05:32;36.53;;;18.15;;
7108;SDS011;29079;41.930;25.558;2023-12-04T14:08:22;29.77;;;16.98;;
7108;SDS011;29079;41.930;25.558;2023-12-04T14:11:11;28.67;;;15.10;;
7108;SDS011;29079;41.930;25.558;2023-12-04T14:14:01;32.50;;;15.25;;
7108;SDS011;29079;41.930;25.558;2023-12-04T14:16:51;27.58;;;14.02;;
7108;SDS011;29079;41.930;25.558;2023-12-04T14:19:39;31.65;;;16.38;;
7108;SDS011;29079;41.930;25.558;2023-12-04T14:22:28;34.75;;;17.88;;
7108;SDS011;29079;41.930;25.558;2023-12-04T14:25:16;30.73;;;16.73;;
7108;SDS011;29079;41.930;25.558;2023-12-04T14:28:04;41.83;;;17.52;;
7108;SDS011;29079;41.930;25.558;2023-12-04T14:30:52;35.00;;;18.65;;
7108;SDS011;29079;41.930;25.558;2023-12-04T14:33:42;38.30;;;20.95;;
7108;SDS011;29079;41.930;25.558;2023-12-04T14:36:30;34.35;;;16.42;;
7108;SDS011;29079;41.930;25.558;2023-12-04T14:39:18;29.33;;;15.35;;
7108;SDS011;29079;41.930;25.558;2023-12-04T14:42:06;22.52;;;12.13;;
7108;SDS011;29079;41.930;25.558;2023-12-04T14:44:54;26.77;;;14.18;;
7108;SDS011;29079;41.930;25.558;2023-12-04T14:47:42;22.83;;;10.95;;
7108;SDS011;29079;41.930;25.558;2023-12-04T14:50:31;22.40;;;11.52;;
7108;SDS011;29079;41.930;25.558;2023-12-04T14:53:20;18.50;;;10.85;;
7108;SDS011;29079;41.930;25.558;2023-12-04T14:56:15;20.35;;;13.13;;
7108;SDS011;29079;41.930;25.558;2023-12-04T14:59:11;22.27;;;10.90;;
7108;SDS011;29079;41.930;25.558;2023-12-04T15:02:22;19.50;;;12.10;;
7108;SDS011;29079;41.930;25.558;2023-12-04T15:05:23;17.60;;;9.68;;
7108;SDS011;29079;41.930;25.558;2023-12-04T15:08:41;13.88;;;8.15;;
7108;SDS011;29079;41.930;25.558;2023-12-04T15:11:46;16.67;;;8.35;;
7108;SDS011;29079;41.930;25.558;2023-12-04T15:15:01;10.10;;;7.32;;
7108;SDS011;29079;41.930;25.558;2023-12-04T15:18:01;12.68;;;8.25;;
7108;SDS011;29079;41.930;25.558;2023-12-04T15:21:03;13.13;;;9.18;;
7108;SDS011;29079;41.930;25.558;2023-12-04T15:23:53;12.25;;;7.68;;
7108;SDS011;29079;41.930;25.558;2023-12-04T15:26:41;13.73;;;8.25;;
7108;SDS011;29079;41.930;25.558;2023-12-04T15:29:28;25.90;;;13.05;;
7108;SDS011;29079;41.930;25.558;2023-12-04T15:32:17;19.38;;;11.48;;
7108;SDS011;29079;41.930;25.558;2023-12-04T15:35:05;22.38;;;14.35;;
7108;SDS011;29079;41.930;25.558;2023-12-04T15:37:58;22.10;;;13.63;;
7108;SDS011;29079;41.930;25.558;2023-12-04T15:40:48;27.67;;;14.70;;
7108;SDS011;29079;41.930;25.558;2023-12-04T15:43:36;54.88;;;22.05;;
7108;SDS011;29079;41.930;25.558;2023-12-04T15:46:23;47.28;;;25.42;;
7108;SDS011;29079;41.930;25.558;2023-12-04T15:49:14;21.63;;;12.82;;
7108;SDS011;29079;41.930;25.558;2023-12-04T15:52:01;44.78;;;20.73;;
7108;SDS011;29079;41.930;25.558;2023-12-04T15:54:51;57.28;;;27.85;;
7108;SDS011;29079;41.930;25.558;2023-12-04T15:57:39;69.57;;;30.85;;
7108;SDS011;29079;41.930;25.558;2023-12-04T16:00:27;61.85;;;29.17;;
7108;SDS011;29079;41.930;25.558;2023-12-04T16:03:14;37.30;;;20.60;;
7108;SDS011;29079;41.930;25.558;2023-12-04T16:06:03;27.65;;;16.13;;
7108;SDS011;29079;41.930;25.558;2023-12-04T16:08:52;28.30;;;16.30;;
7108;SDS011;29079;41.930;25.558;2023-12-04T16:11:43;19.13;;;12.88;;
7108;SDS011;29079;41.930;25.558;2023-12-04T16:14:34;31.00;;;15.02;;
7108;SDS011;29079;41.930;25.558;2023-12-04T16:17:22;25.67;;;13.85;;
7108;SDS011;29079;41.930;25.558;2023-12-04T16:20:10;26.13;;;14.57;;
7108;SDS011;29079;41.930;25.558;2023-12-04T16:22:59;28.23;;;16.27;;
7108;SDS011;29079;41.930;25.558;2023-12-04T16:25:48;36.25;;;20.33;;
7108;SDS011;29079;41.930;25.558;2023-12-04T16:28:36;44.05;;;22.60;;
7108;SDS011;29079;41.930;25.558;2023-12-04T16:31:26;32.28;;;20.23;;
7108;SDS011;29079;41.930;25.558;2023-12-04T16:34:14;25.45;;;17.02;;
7108;SDS011;29079;41.930;25.558;2023-12-04T16:37:03;35.05;;;19.17;;